Time;durP1;ratioP1;P1;durP2;ratioP2;P2;SDS_P1;SDS_P2;PMS_P1;PMS_P2;Temp;Humidity;BMP_temperature;BMP_pressure;BME280_temperature;BME280_humidity;BME280_pressure;Samples;Min_cycle;Max_cycle;Signal;HPM_P1;HPM_P2
2021/06/29 00:01:03;;;;;;;22.35;14.45;;;;;;;19.30;82.30;100511.47;4968284;28;20112;-91
2021/06/29 00:03:29;;;;;;;22.20;12.95;;;;;;;19.43;81.41;100500.38;4954902;28;20023;-90
2021/06/29 00:05:54;;;;;;;20.67;13.75;;;;;;;19.34;82.59;100496.84;4954636;29;20035;-90
2021/06/29 00:08:19;;;;;;;19.23;13.05;;;;;;;19.41;81.26;100499.69;4955187;29;20058;-90
2021/06/29 00:10:46;;;;;;;15.48;11.57;;;;;;;19.44;81.29;100493.22;4955074;29;20035;-90
2021/06/29 00:13:11;;;;;;;18.17;12.20;;;;;;;19.37;81.48;100503.66;4954852;29;20035;-90
2021/06/29 00:15:37;;;;;;;16.60;12.50;;;;;;;19.41;80.81;100495.22;4970000;28;20030;-90
2021/06/29 00:18:03;;;;;;;14.85;11.27;;;;;;;19.38;81.41;100487.53;4961612;28;20023;-90
2021/06/29 00:20:29;;;;;;;16.02;10.82;;;;;;;19.45;80.05;100492.22;4974203;28;20027;-90
2021/06/29 00:22:55;;;;;;;14.68;11.43;;;;;;;19.46;80.52;100488.59;4974205;28;20033;-90
2021/06/29 00:25:20;;;;;;;12.77;10.30;;;;;;;19.42;81.47;100482.75;4972690;28;20037;-90
2021/06/29 00:27:46;;;;;;;16.23;10.77;;;;;;;19.43;80.96;100492.38;4973935;28;20030;-90
2021/06/29 00:30:12;;;;;;;16.90;11.13;;;;;;;19.34;80.13;100480.88;4972967;28;20031;-90
2021/06/29 00:32:37;;;;;;;16.55;10.73;;;;;;;19.39;81.00;100486.56;4954458;29;20038;-90
2021/06/29 00:35:04;;;;;;;17.75;11.77;;;;;;;19.30;81.26;100486.69;4969857;28;20031;-89
2021/06/29 00:37:30;;;;;;;20.23;13.13;;;;;;;19.28;81.29;100476.19;4974146;28;20046;-90
2021/06/29 00:39:55;;;;;;;19.63;11.75;;;;;;;19.26;80.33;100469.38;4973839;28;20473;-90
2021/06/29 00:42:20;;;;;;;17.33;11.48;;;;;;;19.27;81.51;100471.84;4973861;28;20080;-90
2021/06/29 00:44:46;;;;;;;15.90;11.57;;;;;;;19.30;81.22;100474.19;4973856;28;20058;-90
2021/06/29 00:47:12;;;;;;;16.15;11.88;;;;;;;19.35;81.22;100476.38;4974178;28;20027;-91
2021/06/29 00:49:38;;;;;;;18.95;12.38;;;;;;;19.38;81.70;100482.22;4959819;28;20106;-90
2021/06/29 00:52:06;;;;;;;19.02;12.30;;;;;;;19.24;81.78;100456.22;4969645;28;20119;-90
2021/06/29 00:54:34;;;;;;;23.25;13.65;;;;;;;19.36;81.55;100460.25;4954557;28;20078;-90
2021/06/29 00:57:00;;;;;;;19.27;12.80;;;;;;;19.41;80.91;100465.94;4953330;28;20405;-90
2021/06/29 00:59:26;;;;;;;17.73;12.10;;;;;;;19.41;81.05;100463.28;4969149;28;20074;-90
2021/06/29 01:01:51;;;;;;;15.57;11.40;;;;;;;19.32;80.34;100455.41;4954199;28;20031;-90
2021/06/29 01:04:16;;;;;;;22.13;12.27;;;;;;;19.31;80.82;100459.06;4954355;29;20110;-90
2021/06/29 01:06:43;;;;;;;16.92;10.32;;;;;;;19.32;80.25;100436.78;4953188;29;20085;-90
2021/06/29 01:09:09;;;;;;;17.70;11.80;;;;;;;19.39;80.03;100453.75;4969260;28;20367;-90
2021/06/29 01:11:34;;;;;;;16.88;12.23;;;;;;;19.36;80.54;100460.25;4954355;29;20118;-90
2021/06/29 01:14:12;;;;;;;18.67;11.77;;;;;;;19.37;80.29;100461.94;4954483;29;20118;-90
2021/06/29 01:16:39;;;;;;;15.38;12.02;;;;;;;19.35;80.07;100450.59;4966604;28;20078;-90
2021/06/29 01:19:04;;;;;;;17.27;11.68;;;;;;;19.36;80.35;100457.59;4973503;28;20030;-90
2021/06/29 01:21:43;;;;;;;21.73;12.82;;;;;;;19.21;80.86;100459.16;4973379;28;20054;-90
2021/06/29 01:24:15;;;;;;;16.13;12.60;;;;;;;19.28;80.88;100457.56;4973444;28;20026;-89
2021/06/29 01:29:34;;;;;;;17.83;12.82;;;;;;;19.40;80.10;100453.59;4974063;28;20041;-90
2021/06/29 01:31:59;;;;;;;15.23;11.77;;;;;;;19.34;80.04;100450.75;4971421;28;20035;-90
2021/06/29 01:34:24;;;;;;;17.30;12.88;;;;;;;19.26;81.07;100440.09;4957889;29;20082;-90
2021/06/29 01:36:50;;;;;;;20.50;12.60;;;;;;;19.29;81.25;100435.25;4972626;28;20118;-90
2021/06/29 01:39:15;;;;;;;18.98;11.88;;;;;;;19.36;80.49;100438.13;4957848;29;20031;-89
2021/06/29 01:41:41;;;;;;;18.95;12.93;;;;;;;19.41;80.10;100433.13;4957353;29;20077;-90
2021/06/29 01:44:19;;;;;;;21.40;14.35;;;;;;;19.28;81.20;100433.59;4957935;29;20050;-89
2021/06/29 01:46:47;;;;;;;16.95;12.15;;;;;;;19.21;82.25;100438.75;4959630;28;20097;-90
2021/06/29 01:49:12;;;;;;;21.77;13.52;;;;;;;19.17;82.30;100436.53;4976714;28;20027;-89
2021/06/29 01:51:38;;;;;;;18.85;13.25;;;;;;;19.24;81.85;100431.41;4976655;28;20030;-89
2021/06/29 01:54:03;;;;;;;21.80;14.70;;;;;;;19.17;81.88;100444.50;4976509;28;20027;-89
2021/06/29 01:56:32;;;;;;;23.17;14.13;;;;;;;19.19;82.07;100445.19;4976595;28;20486;-89
2021/06/29 01:59:02;;;;;;;20.05;14.50;;;;;;;19.14;81.54;100447.50;4976884;28;20026;-89
2021/06/29 02:01:27;;;;;;;22.83;13.88;;;;;;;19.15;81.84;100442.00;4976798;28;20030;-89
2021/06/29 02:03:53;;;;;;;21.50;14.02;;;;;;;19.06;82.49;100434.16;4975706;28;20023;-89
2021/06/29 02:06:18;;;;;;;20.88;14.07;;;;;;;19.14;82.90;100443.00;4976795;28;20034;-89
2021/06/29 02:08:44;;;;;;;18.52;14.20;;;;;;;19.20;82.96;100438.88;4976703;28;20022;-89
2021/06/29 02:11:10;;;;;;;21.02;13.88;;;;;;;19.22;82.09;100429.75;4976377;28;20477;-90
2021/06/29 02:13:36;;;;;;;22.70;15.52;;;;;;;19.23;82.16;100443.88;4976484;28;20033;-89
2021/06/29 02:16:01;;;;;;;23.20;15.95;;;;;;;19.15;82.42;100439.34;4976241;28;20098;-89
2021/06/29 02:18:27;;;;;;;29.05;17.00;;;;;;;19.12;81.25;100437.03;4975914;28;20504;-89
2021/06/29 02:20:53;;;;;;;21.67;15.35;;;;;;;19.00;82.86;100430.31;4975227;28;20082;-89
2021/06/29 02:23:18;;;;;;;24.17;15.55;;;;;;;19.03;83.38;100429.97;4976301;28;20035;-89
2021/06/29 02:25:45;;;;;;;24.63;15.23;;;;;;;19.03;83.45;100440.63;4976470;28;20027;-89
2021/06/29 02:28:10;;;;;;;24.60;15.00;;;;;;;19.03;83.46;100433.47;4976210;28;20201;-89
2021/06/29 02:30:36;;;;;;;21.08;14.63;;;;;;;19.13;83.02;100435.19;4971956;28;20650;-89
2021/06/29 02:33:02;;;;;;;21.85;14.90;;;;;;;18.96;83.01;100429.78;4964104;28;20109;-89
2021/06/29 02:35:28;;;;;;;23.73;15.48;;;;;;;18.98;82.78;100433.13;4960111;28;20109;-89
2021/06/29 02:37:54;;;;;;;23.13;15.90;;;;;;;18.96;83.95;100432.44;4975886;28;20023;-89
2021/06/29 02:40:20;;;;;;;23.85;17.15;;;;;;;18.93;82.99;100427.44;4974630;28;20547;-89
2021/06/29 02:42:45;;;;;;;30.75;17.35;;;;;;;19.06;82.41;100442.97;4975232;28;20034;-89
2021/06/29 02:45:16;;;;;;;26.92;17.45;;;;;;;19.05;82.19;100438.63;4975803;28;20457;-89
2021/06/29 02:47:42;;;;;;;23.75;17.67;;;;;;;18.93;82.22;100443.41;4974380;28;20173;-89
2021/06/29 02:50:08;;;;;;;24.23;16.88;;;;;;;19.00;82.47;100436.47;4973405;28;20121;-89
2021/06/29 02:52:34;;;;;;;25.63;16.95;;;;;;;19.00;82.50;100441.78;4956205;28;20060;-89
2021/06/29 02:55:00;;;;;;;31.67;18.90;;;;;;;19.00;82.10;100441.78;4971150;28;20027;-89
2021/06/29 02:57:26;;;;;;;25.65;16.77;;;;;;;19.07;82.74;100439.31;4955312;29;20023;-89
2021/06/29 02:59:51;;;;;;;27.83;17.27;;;;;;;19.00;82.76;100439.13;4956514;28;20027;-88
2021/06/29 03:02:17;;;;;;;26.17;17.20;;;;;;;18.97;82.98;100441.25;4956281;29;20042;-88
2021/06/29 03:04:42;;;;;;;26.00;17.10;;;;;;;18.86;82.62;100434.41;4960603;28;20026;-89
2021/06/29 03:07:07;;;;;;;26.50;16.60;;;;;;;18.88;82.31;100416.44;4975227;28;20034;-88
2021/06/29 03:09:33;;;;;;;28.40;18.50;;;;;;;18.84;81.86;100420.41;4975104;28;20158;-88
2021/06/29 03:11:58;;;;;;;30.48;18.52;;;;;;;18.86;82.19;100431.72;4975430;28;20030;-89
2021/06/29 03:14:24;;;;;;;28.20;17.00;;;;;;;18.86;82.48;100436.19;4975354;28;20462;-89
2021/06/29 03:16:51;;;;;;;25.30;18.13;;;;;;;18.85;81.93;100437.19;4975080;28;20528;-89
2021/06/29 03:19:16;;;;;;;26.25;17.10;;;;;;;18.88;81.83;100434.22;4971699;28;20034;-89
2021/06/29 03:21:42;;;;;;;23.02;16.05;;;;;;;18.72;82.07;100430.47;4970324;28;20027;-90
2021/06/29 03:24:07;;;;;;;19.67;16.13;;;;;;;18.80;82.05;100430.53;4955916;28;20537;-89
2021/06/29 03:26:33;;;;;;;20.15;15.85;;;;;;;18.85;81.36;100432.72;4955969;29;20114;-90
2021/06/29 03:28:58;;;;;;;21.83;15.30;;;;;;;18.76;82.20;100438.94;4969244;28;20393;-90
2021/06/29 03:31:24;;;;;;;22.30;15.95;;;;;;;18.72;82.95;100438.44;4974776;28;20041;-90
2021/06/29 03:33:49;;;;;;;18.58;14.75;;;;;;;18.75;82.45;100437.28;4975086;28;20085;-90
2021/06/29 03:36:14;;;;;;;24.65;16.52;;;;;;;18.80;81.64;100451.00;4974927;28;20069;-90
2021/06/29 03:38:40;;;;;;;25.27;16.33;;;;;;;18.82;81.88;100449.00;4974887;28;20034;-90
2021/06/29 03:41:06;;;;;;;18.02;13.90;;;;;;;18.86;81.66;100452.16;4974959;28;20027;-90
2021/06/29 03:43:36;;;;;;;24.70;14.20;;;;;;;18.69;81.51;100432.59;4973095;28;20533;-91
2021/06/29 03:46:02;;;;;;;22.42;15.65;;;;;;;18.54;83.28;100448.25;4958186;28;20078;-90
2021/06/29 03:48:27;;;;;;;18.83;14.18;;;;;;;18.69;81.87;100453.88;4955483;29;20430;-90
2021/06/29 03:50:52;;;;;;;18.45;13.75;;;;;;;18.39;82.96;100445.34;4955647;29;20035;-89
2021/06/29 03:53:18;;;;;;;23.65;14.52;;;;;;;18.60;82.96;100461.78;4954838;28;20035;-90
2021/06/29 03:55:43;;;;;;;20.65;13.52;;;;;;;18.58;82.94;100446.97;4955390;29;20020;-90
2021/06/29 03:58:08;;;;;;;19.75;12.82;;;;;;;18.36;83.69;100448.28;4954283;29;20441;-90
2021/06/29 04:00:34;;;;;;;22.08;14.23;;;;;;;18.60;82.70;100451.16;4970226;28;20034;-90
2021/06/29 04:03:00;;;;;;;15.43;11.68;;;;;;;18.62;82.25;100454.50;4974754;28;20031;-90
2021/06/29 04:05:25;;;;;;;18.23;12.50;;;;;;;18.66;81.65;100459.47;4974449;28;20026;-90
2021/06/29 04:07:51;;;;;;;14.40;11.02;;;;;;;18.72;81.41;100457.06;4974447;28;20045;-90
2021/06/29 04:10:16;;;;;;;15.07;11.68;;;;;;;18.69;81.52;100454.69;4974699;28;20027;-90
2021/06/29 04:12:42;;;;;;;14.63;11.40;;;;;;;18.77;81.36;100452.09;4973866;28;20026;-89
2021/06/29 04:15:09;;;;;;;20.48;10.88;;;;;;;18.71;81.81;100435.94;4974592;28;20436;-90
2021/06/29 04:17:34;;;;;;;15.55;11.45;;;;;;;18.77;80.79;100445.94;4989710;28;20022;-90
2021/06/29 04:20:00;;;;;;;15.48;11.77;;;;;;;18.57;81.42;100456.75;4972739;28;20034;-90
2021/06/29 04:22:25;;;;;;;16.50;10.98;;;;;;;18.35;83.37;100455.44;4972672;28;20025;-90
2021/06/29 04:24:50;;;;;;;13.73;10.52;;;;;;;18.30;84.03;100457.72;4974293;28;20452;-90
2021/06/29 04:27:16;;;;;;;17.63;11.70;;;;;;;18.27;84.23;100450.06;4970479;28;20022;-90
2021/06/29 04:29:42;;;;;;;14.13;11.52;;;;;;;18.31;83.09;100443.44;4954896;29;20031;-90
2021/06/29 04:32:08;;;;;;;13.77;10.48;;;;;;;18.20;84.79;100441.84;4954830;29;20473;-90
2021/06/29 04:34:33;;;;;;;13.10;11.18;;;;;;;18.24;82.89;100450.34;4955389;28;20082;-90
2021/06/29 04:36:59;;;;;;;18.83;11.40;;;;;;;18.21;83.60;100440.88;4954494;29;20469;-90
2021/06/29 04:39:24;;;;;;;15.15;11.13;;;;;;;18.35;83.14;100458.09;4954907;29;20019;-90
2021/06/29 04:41:49;;;;;;;17.88;10.80;;;;;;;18.22;83.03;100450.50;4955807;28;20031;-90
2021/06/29 04:44:15;;;;;;;12.15;9.73;;;;;;;18.28;83.24;100454.38;4954668;29;20394;-90
2021/06/29 04:46:40;;;;;;;14.88;11.25;;;;;;;18.15;82.10;100446.81;4954745;28;20398;-89
2021/06/29 04:49:06;;;;;;;14.40;10.55;;;;;;;18.19;83.13;100442.03;4954455;28;20098;-89
2021/06/29 04:51:31;;;;;;;18.10;11.95;;;;;;;18.20;82.42;100443.69;4966620;28;20071;-87
2021/06/29 04:53:56;;;;;;;12.55;10.32;;;;;;;18.26;83.82;100436.91;4972067;28;20043;-87
2021/06/29 04:56:22;;;;;;;15.50;11.02;;;;;;;18.25;83.69;100425.47;4972237;28;20125;-87
2021/06/29 04:58:52;;;;;;;17.67;10.55;;;;;;;18.32;84.05;100441.63;4973759;28;20038;-87
2021/06/29 05:01:19;;;;;;;14.32;10.80;;;;;;;18.39;83.71;100443.50;4973734;28;20105;-88
2021/06/29 05:03:45;;;;;;;16.02;11.00;;;;;;;18.47;82.72;100444.56;4972288;28;20037;-89
2021/06/29 05:06:10;;;;;;;19.48;11.50;;;;;;;18.82;80.11;100446.34;4977277;28;20023;-88
2021/06/29 05:08:36;;;;;;;17.45;11.43;;;;;;;18.98;78.52;100432.28;4977156;28;20093;-88
2021/06/29 05:11:01;;;;;;;17.48;12.27;;;;;;;19.13;78.28;100451.16;4967735;28;20041;-88
2021/06/29 05:13:27;;;;;;;17.70;11.13;;;;;;;19.10;78.47;100456.81;4957876;29;20027;-89
2021/06/29 05:15:52;;;;;;;15.88;11.70;;;;;;;19.16;77.17;100456.16;4958224;29;20070;-88
2021/06/29 05:18:18;;;;;;;18.90;12.00;;;;;;;19.13;76.88;100456.47;4958212;29;20023;-88
2021/06/29 05:20:43;;;;;;;17.38;11.32;;;;;;;19.18;76.72;100459.50;4958033;29;20111;-88
2021/06/29 05:23:09;;;;;;;14.98;11.13;;;;;;;19.17;76.73;100463.16;4958167;28;20466;-88
2021/06/29 05:25:35;;;;;;;19.42;11.95;;;;;;;18.92;78.94;100460.38;4957914;28;20049;-88
2021/06/29 05:28:00;;;;;;;14.85;10.57;;;;;;;19.25;76.13;100465.84;4957519;29;20031;-89
2021/06/29 05:30:26;;;;;;;16.73;11.82;;;;;;;19.36;75.68;100470.91;4957722;29;20031;-89
2021/06/29 05:32:51;;;;;;;13.20;10.55;;;;;;;19.43;75.16;100473.75;4957856;28;20032;-89
2021/06/29 05:35:17;;;;;;;14.48;11.13;;;;;;;19.41;75.53;100470.41;4957801;28;20023;-89
2021/06/29 05:37:42;;;;;;;13.57;10.57;;;;;;;19.35;74.71;100477.22;4964008;28;20026;-89
2021/06/29 05:40:09;;;;;;;14.65;10.63;;;;;;;19.34;75.27;100464.06;4976910;28;20026;-88
2021/06/29 05:42:34;;;;;;;13.45;9.63;;;;;;;19.50;75.41;100477.44;4976507;28;20193;-89
2021/06/29 05:44:59;;;;;;;11.02;9.32;;;;;;;19.40;75.72;100456.25;4976388;28;20190;-89
2021/06/29 05:47:25;;;;;;;15.07;10.52;;;;;;;19.52;75.37;100469.28;4976256;28;20493;-89
2021/06/29 05:49:50;;;;;;;12.75;10.60;;;;;;;19.65;74.79;100461.69;4976204;28;20027;-88
2021/06/29 05:52:17;;;;;;;14.63;11.57;;;;;;;19.64;74.18;100478.66;4985349;28;20474;-89
2021/06/29 05:54:44;;;;;;;12.93;10.90;;;;;;;19.54;74.33;100469.97;4958464;28;20025;-89
2021/06/29 05:57:11;;;;;;;15.23;11.18;;;;;;;19.54;74.05;100475.28;4975218;28;20469;-88
2021/06/29 05:59:37;;;;;;;16.55;11.63;;;;;;;19.61;74.36;100484.31;4976100;28;20033;-88
2021/06/29 06:02:02;;;;;;;18.75;12.98;;;;;;;19.51;74.27;100476.47;4975895;28;20034;-89
2021/06/29 06:04:28;;;;;;;16.90;12.75;;;;;;;19.43;73.63;100484.38;4974405;28;20058;-89
2021/06/29 06:06:53;;;;;;;18.15;12.98;;;;;;;19.54;73.83;100491.28;4974956;28;20031;-89
2021/06/29 06:09:19;;;;;;;20.98;12.48;;;;;;;19.45;73.55;100481.56;4982891;28;20031;-89
2021/06/29 06:11:44;;;;;;;18.77;12.60;;;;;;;19.44;74.66;100483.41;4975099;28;20034;-89
2021/06/29 06:14:09;;;;;;;17.73;12.90;;;;;;;19.44;74.94;100491.41;4975172;28;20081;-89
2021/06/29 06:16:35;;;;;;;16.30;12.82;;;;;;;19.40;74.58;100487.38;4974328;28;20459;-89
2021/06/29 06:19:00;;;;;;;14.27;11.23;;;;;;;19.46;75.04;100488.59;4979240;28;20033;-89
2021/06/29 06:21:26;;;;;;;14.15;11.57;;;;;;;19.45;75.33;100486.91;4975423;28;20026;-88
2021/06/29 06:23:51;;;;;;;17.33;12.02;;;;;;;19.57;74.87;100501.63;4974944;28;20023;-88
2021/06/29 06:26:16;;;;;;;16.85;12.35;;;;;;;19.54;74.73;100492.09;4976221;28;20076;-88
2021/06/29 06:28:42;;;;;;;18.25;12.82;;;;;;;19.60;74.47;100501.28;4975192;28;20035;-88
2021/06/29 06:31:07;;;;;;;14.45;11.15;;;;;;;19.72;74.46;100501.84;4975812;28;20457;-88
2021/06/29 06:33:32;;;;;;;15.68;11.02;;;;;;;19.78;80.30;100496.69;4976200;28;20074;-85
2021/06/29 06:35:58;;;;;;;14.48;11.30;;;;;;;19.85;73.55;100509.41;4975794;28;20524;-86
2021/06/29 06:38:23;;;;;;;14.73;11.05;;;;;;;19.93;72.84;100504.09;4974592;28;20026;-86
2021/06/29 06:40:49;;;;;;;15.52;12.55;;;;;;;19.75;71.59;100510.38;4974483;28;20030;-88
2021/06/29 06:43:14;;;;;;;21.05;7.97;;;;;;;20.29;74.71;100514.47;4976797;28;20062;-79
2021/06/29 06:45:39;;;;;;;17.90;8.05;;;;;;;20.74;75.82;100510.53;4973935;28;20505;-83
2021/06/29 06:48:06;;;;;;;10.55;6.70;;;;;;;21.10;75.46;100507.47;4972368;28;20027;-77
2021/06/29 06:50:31;;;;;;;12.30;6.57;;;;;;;21.39;74.50;100513.06;4970664;28;20027;-78
2021/06/29 06:52:56;;;;;;;16.50;6.72;;;;;;;21.67;73.17;100501.94;4967017;28;20469;-78
2021/06/29 06:55:25;;;;;;;13.65;5.97;;;;;;;21.90;71.87;100502.00;4971606;28;20397;-77
2021/06/29 06:57:55;;;;;;;12.05;7.13;;;;;;;22.14;69.90;100513.56;4972223;28;20031;-78
2021/06/29 07:00:22;;;;;;;10.45;5.75;;;;;;;22.36;68.42;100515.44;4974252;28;20038;-78
2021/06/29 07:02:47;;;;;;;7.78;4.68;;;;;;;22.48;67.45;100518.50;4969666;28;20045;-80
2021/06/29 07:05:13;;;;;;;7.82;5.68;;;;;;;22.62;66.22;100518.75;4973211;28;20030;-81
2021/06/29 07:07:38;;;;;;;9.27;5.30;;;;;;;22.79;64.99;100520.28;4974135;28;20058;-81
2021/06/29 07:10:06;;;;;;;12.73;4.88;;;;;;;22.87;64.33;100519.38;4974142;28;20679;-80
2021/06/29 07:12:31;;;;;;;9.82;5.25;;;;;;;22.93;63.57;100511.44;4971561;28;20093;-81
2021/06/29 07:14:57;;;;;;;13.88;5.25;;;;;;;22.97;62.84;100514.56;4973287;28;20631;-81
2021/06/29 07:17:23;;;;;;;15.15;5.57;;;;;;;22.99;61.94;100511.72;4972416;28;20392;-81
2021/06/29 07:19:48;;;;;;;19.77;4.63;;;;;;;23.07;61.93;100520.53;4973919;28;20094;-81
2021/06/29 07:22:14;;;;;;;10.85;4.78;;;;;;;23.12;61.28;100517.28;4974248;28;20478;-82
2021/06/29 07:24:39;;;;;;;7.75;4.78;;;;;;;23.17;60.80;100514.91;4973992;28;20038;-82
2021/06/29 07:27:06;;;;;;;10.73;5.25;;;;;;;23.31;60.85;100518.59;4973828;28;20450;-81
2021/06/29 07:29:31;;;;;;;8.20;4.10;;;;;;;23.35;59.93;100518.03;4973486;28;20039;-81
2021/06/29 07:31:57;;;;;;;9.63;4.63;;;;;;;23.37;59.80;100515.16;4972903;28;20041;-81
2021/06/29 07:34:22;;;;;;;7.38;4.05;;;;;;;23.42;59.92;100515.47;4974008;28;20031;-80
2021/06/29 07:36:49;;;;;;;12.25;4.22;;;;;;;23.48;59.30;100519.22;4962053;28;20523;-81
2021/06/29 07:39:14;;;;;;;12.02;5.32;;;;;;;23.51;58.86;100522.34;4973567;28;20035;-81
2021/06/29 07:41:40;;;;;;;14.40;4.95;;;;;;;23.54;59.47;100518.50;4972467;28;20034;-82
2021/06/29 07:44:05;;;;;;;12.07;4.72;;;;;;;23.56;58.68;100519.97;4973771;28;20405;-81
2021/06/29 07:46:31;;;;;;;17.05;4.65;;;;;;;23.61;58.45;100523.94;4973208;28;20118;-82
2021/06/29 07:48:56;;;;;;;14.25;4.50;;;;;;;23.63;58.28;100527.25;4973429;28;20038;-82
2021/06/29 07:51:21;;;;;;;15.63;4.40;;;;;;;23.61;57.83;100527.44;4973716;28;20035;-82
2021/06/29 07:53:47;;;;;;;32.58;5.65;;;;;;;23.64;57.93;100532.44;4973928;28;20388;-81
2021/06/29 07:56:17;;;;;;;18.92;4.80;;;;;;;23.63;57.49;100525.41;4973866;28;20122;-82
2021/06/29 07:58:44;;;;;;;19.58;5.25;;;;;;;23.68;57.62;100536.41;4972397;28;20019;-82
2021/06/29 08:01:11;;;;;;;21.00;4.85;;;;;;;23.67;57.87;100534.72;4973518;28;20031;-82
2021/06/29 08:03:36;;;;;;;36.38;5.50;;;;;;;23.67;57.83;100525.88;4973514;28;20026;-82
2021/06/29 08:06:02;;;;;;;26.60;5.93;;;;;;;23.66;57.55;100532.25;4973047;28;20184;-82
2021/06/29 08:08:27;;;;;;;19.52;4.18;;;;;;;23.70;57.45;100529.00;4973296;28;20477;-82
2021/06/29 08:10:52;;;;;;;23.92;5.75;;;;;;;23.68;57.46;100532.91;4973468;28;20031;-82
2021/06/29 08:13:18;;;;;;;36.60;6.78;;;;;;;23.69;57.56;100534.53;4973525;28;20045;-81
2021/06/29 08:15:44;;;;;;;17.25;4.45;;;;;;;23.68;57.29;100533.72;4973359;28;20031;-81
2021/06/29 08:18:09;;;;;;;9.88;4.50;;;;;;;23.69;57.01;100540.72;4973701;28;20037;-81
2021/06/29 08:20:35;;;;;;;13.88;3.88;;;;;;;23.69;56.83;100543.41;4973751;28;20473;-82
2021/06/29 08:23:00;;;;;;;12.30;3.97;;;;;;;23.68;56.82;100540.94;4973063;28;20465;-82
2021/06/29 08:25:28;;;;;;;13.85;4.28;;;;;;;23.70;56.82;100537.03;4972855;28;20438;-81
2021/06/29 08:27:53;;;;;;;8.60;3.97;;;;;;;23.69;56.69;100540.72;4973147;28;20034;-81
2021/06/29 08:30:20;;;;;;;11.25;4.32;;;;;;;23.71;57.07;100538.69;4973258;28;20113;-81
2021/06/29 08:32:45;;;;;;;9.45;4.22;;;;;;;23.74;56.77;100530.28;4973255;28;20027;-82
2021/06/29 08:35:12;;;;;;;9.20;3.97;;;;;;;23.80;56.67;100535.97;4973236;28;20492;-81
2021/06/29 08:37:39;;;;;;;12.35;4.18;;;;;;;23.86;56.19;100535.22;4973329;28;20019;-81
2021/06/29 08:40:09;;;;;;;8.73;3.53;;;;;;;23.83;56.80;100540.94;4972248;28;20026;-81
2021/06/29 08:42:37;;;;;;;8.50;4.05;;;;;;;23.83;56.37;100547.13;4972266;28;20109;-81
2021/06/29 08:45:04;;;;;;;15.73;4.03;;;;;;;23.86;55.87;100540.56;4973329;28;20026;-81
2021/06/29 08:47:29;;;;;;;6.70;3.75;;;;;;;23.86;55.65;100543.25;4987904;28;20372;-81
2021/06/29 08:49:54;;;;;;;12.52;4.97;;;;;;;23.86;56.15;100545.94;4972842;28;20049;-81
2021/06/29 08:52:20;;;;;;;8.23;4.32;;;;;;;23.78;56.12;100548.72;4973000;28;20105;-81
2021/06/29 08:54:48;;;;;;;9.63;4.00;;;;;;;23.71;56.12;100549.41;4972362;28;20051;-81
2021/06/29 08:57:14;;;;;;;5.75;4.03;;;;;;;23.63;56.84;100552.19;4971427;28;20105;-81
2021/06/29 08:59:40;;;;;;;9.63;4.40;;;;;;;23.81;56.04;100548.34;4982779;28;20121;-81
2021/06/29 09:02:06;;;;;;;8.48;3.97;;;;;;;23.83;55.77;100551.66;4992056;28;20034;-81
2021/06/29 09:04:51;;;;;;;12.88;5.35;;;;;;;23.86;55.59;100556.66;4981567;28;20035;-81
2021/06/29 09:07:18;;;;;;;12.38;4.65;;;;;;;23.73;55.71;100563.47;4972383;28;20030;-85
2021/06/29 09:09:58;;;;;;;13.15;5.65;;;;;;;23.82;57.88;100564.25;4971417;28;20031;-77
2021/06/29 09:12:42;;;;;;;9.05;4.68;;;;;;;23.80;56.63;100568.13;4968054;28;20174;-77
2021/06/29 09:15:22;;;;;;;10.23;4.60;;;;;;;23.74;57.23;100570.50;4972017;28;20027;-77
2021/06/29 09:17:48;;;;;;;10.77;4.65;;;;;;;23.73;57.80;100565.31;4971089;28;20385;-77
2021/06/29 09:20:13;;;;;;;9.07;4.78;;;;;;;23.71;57.77;100568.19;4954288;28;20030;-77
2021/06/29 09:22:39;;;;;;;13.10;4.82;;;;;;;23.71;57.83;100562.00;4966374;28;20030;-77
2021/06/29 09:25:22;;;;;;;12.18;4.80;;;;;;;23.73;58.49;100566.16;4971501;28;20088;-78
2021/06/29 09:27:48;;;;;;;12.40;4.90;;;;;;;23.69;58.17;100577.44;4968876;28;20026;-78
2021/06/29 09:30:26;;;;;;;8.10;4.80;;;;;;;23.70;58.48;100579.94;4962461;28;20068;-77
2021/06/29 09:32:52;;;;;;;17.55;5.13;;;;;;;23.66;58.51;100577.81;4969986;28;20031;-78
2021/06/29 09:35:17;;;;;;;7.45;5.05;;;;;;;23.64;58.51;100579.84;4971523;28;20041;-77
2021/06/29 09:37:47;;;;;;;16.23;5.53;;;;;;;23.66;58.64;100584.00;4971814;28;20070;-77
2021/06/29 09:40:14;;;;;;;9.98;4.63;;;;;;;23.69;58.60;100585.47;4971570;28;20031;-77
2021/06/29 09:42:40;;;;;;;16.80;5.50;;;;;;;23.68;58.68;100586.50;4969845;28;20074;-77
2021/06/29 09:45:35;;;;;;;14.85;4.88;;;;;;;23.73;58.52;100576.88;4971708;28;20055;-78
2021/06/29 09:48:03;;;;;;;15.23;5.07;;;;;;;23.72;59.42;100572.53;4969669;28;20109;-77
2021/06/29 09:50:42;;;;;;;14.02;5.20;;;;;;;23.79;59.24;100578.00;4971542;28;20034;-78
2021/06/29 09:53:18;;;;;;;10.82;4.55;;;;;;;23.78;59.15;100576.34;4974765;28;20022;-77
2021/06/29 09:55:46;;;;;;;6.18;4.50;;;;;;;23.83;58.36;100575.78;4974817;28;20023;-77
2021/06/29 09:58:13;;;;;;;14.05;5.07;;;;;;;23.82;58.75;100584.88;4974998;28;20632;-77
2021/06/29 10:00:54;;;;;;;9.88;4.50;;;;;;;23.81;58.64;100583.19;4973265;28;20030;-77
2021/06/29 10:03:33;;;;;;;9.90;4.60;;;;;;;23.78;58.45;100587.09;4972562;28;20113;-77
2021/06/29 10:06:01;;;;;;;11.18;4.93;;;;;;;23.75;58.74;100588.22;4974119;28;20130;-77
2021/06/29 10:08:34;;;;;;;12.20;4.95;;;;;;;23.75;58.43;100590.91;4972801;28;20125;-76
2021/06/29 10:11:04;;;;;;;9.65;4.25;;;;;;;23.70;58.15;100582.63;4968971;28;20078;-76
2021/06/29 10:14:00;;;;;;;12.70;5.07;;;;;;;23.76;58.10;100589.91;4975385;28;20031;-76
2021/06/29 10:16:43;;;;;;;12.43;4.63;;;;;;;23.61;58.93;100591.75;4951295;28;20120;-76
2021/06/29 10:19:26;;;;;;;7.75;3.92;;;;;;;23.56;59.24;100591.50;4964351;28;20022;-76
2021/06/29 10:21:54;;;;;;;9.68;3.88;;;;;;;23.62;58.32;100593.44;4975010;28;20499;-76
2021/06/29 10:24:24;;;;;;;8.88;4.45;;;;;;;23.54;58.74;100589.00;4967356;28;20039;-76
2021/06/29 10:26:55;;;;;;;7.75;4.45;;;;;;;23.54;58.31;100596.22;4974043;28;20027;-76
2021/06/29 10:29:22;;;;;;;9.47;5.13;;;;;;;23.50;58.42;100590.38;4970285;28;20033;-76
2021/06/29 10:31:54;;;;;;;6.45;3.97;;;;;;;23.47;58.25;100590.75;4973716;28;20299;-76
2021/06/29 10:34:21;;;;;;;7.57;4.03;;;;;;;23.46;58.32;100597.13;4974057;28;20496;-76
2021/06/29 10:36:49;;;;;;;13.80;4.35;;;;;;;23.48;58.36;100591.56;4973779;28;20034;-76
2021/06/29 10:39:22;;;;;;;7.10;3.72;;;;;;;23.47;57.91;100585.38;4971600;28;20066;-76
2021/06/29 10:42:01;;;;;;;10.52;4.22;;;;;;;23.46;58.45;100580.19;4973197;28;20033;-76
2021/06/29 10:44:29;;;;;;;7.57;4.05;;;;;;;23.47;58.17;100587.25;4974020;28;20110;-76
2021/06/29 10:46:55;;;;;;;9.57;3.35;;;;;;;23.48;58.53;100594.25;4972528;28;20058;-76
2021/06/29 10:49:44;;;;;;;12.55;5.60;;;;;;;23.45;58.46;100591.94;4969741;28;20503;-76
2021/06/29 10:52:22;;;;;;;8.73;3.97;;;;;;;23.46;58.64;100593.59;4964604;28;20043;-76
2021/06/29 10:54:59;;;;;;;10.50;3.72;;;;;;;23.45;58.33;100587.41;4970679;28;20073;-76
2021/06/29 10:57:45;;;;;;;8.57;3.80;;;;;;;23.47;58.17;100589.91;4973944;28;20039;-76
2021/06/29 11:00:16;;;;;;;6.18;3.88;;;;;;;23.50;58.03;100594.91;4973749;28;20038;-76
2021/06/29 11:02:57;;;;;;;6.13;3.53;;;;;;;23.48;58.39;100594.25;4972335;28;20086;-76
2021/06/29 11:05:27;;;;;;;6.37;3.67;;;;;;;23.48;57.78;100591.56;4973701;28;20035;-76
2021/06/29 11:08:04;;;;;;;4.97;3.05;;;;;;;23.51;57.77;100593.91;4972994;28;20042;-76
2021/06/29 11:10:32;;;;;;;3.50;3.20;;;;;;;23.51;57.79;100583.19;4971795;28;20110;-76
2021/06/29 11:13:00;;;;;;;3.92;3.20;;;;;;;23.52;57.64;100587.53;4971098;28;20545;-76
2021/06/29 11:15:53;;;;;;;10.98;3.83;;;;;;;23.58;57.09;100585.94;4973354;28;20033;-76
2021/06/29 11:18:41;;;;;;;4.15;3.10;;;;;;;23.63;57.54;100589.72;4967808;28;20097;-76